Weather at Barwon Heads Airport

Public forecast

Using degrees Celsius for public forecast. Weather courtesy of forecast.io.

Closest aviation weather report (METAR) to Barwon Heads Airport

Report is more than 6 hours old.

Closest report is Avalon Airport, 13.3 nm (24.6 km) N. Retrieved 2022/09/17 19:00 UTC (8 days ago):

YMAV 171900Z AUTO 30017KT 9999 // SCT026 BKN033 BKN054 10/07 Q1004

Closest aviation forecast (TAF) to Barwon Heads Airport

Forecast is more than 12 hours old.

Closest forecast is Avalon Airport, 13.3 nm (24.6 km) N. Retrieved 2022/09/17 18:36 UTC (8 days ago):

TAF YMAV 171732Z 1718/1818 30018G28KT 9999 -SHRA SCT020 BKN030 FM181000 28013KT 9999 -SHRA SCT030 INTER 1801/1810 4000 SHRA BKN015